createdAt,value
2023-01-13T00:00:16.036Z,99.90
2023-01-13T00:02:46.995Z,99.90
2023-01-13T00:05:22.946Z,99.90
2023-01-13T00:07:52.883Z,99.90
2023-01-13T00:10:19.851Z,99.90
2023-01-13T00:12:58.271Z,99.90
2023-01-13T00:15:32.519Z,99.90
2023-01-13T00:17:59.718Z,99.90
2023-01-13T00:23:10.384Z,99.90
2023-01-13T00:25:41.135Z,99.90
2023-01-13T00:28:10.314Z,99.90
2023-01-13T00:30:40.636Z,99.90
2023-01-13T00:33:07.437Z,99.90
2023-01-13T00:35:37.020Z,99.90
2023-01-13T00:38:06.862Z,99.90
2023-01-13T00:40:40.446Z,99.90
2023-01-13T00:43:26.021Z,99.90
2023-01-13T00:45:55.263Z,99.90
2023-01-13T00:48:28.453Z,99.90
2023-01-13T00:50:59.302Z,99.90
2023-01-13T00:53:27.068Z,99.90
2023-01-13T00:56:07.004Z,99.90
2023-01-13T00:58:38.740Z,99.90
2023-01-13T01:01:11.030Z,99.90
2023-01-13T01:03:51.943Z,99.90
2023-01-13T01:06:24.906Z,99.90
2023-01-13T01:08:55.683Z,99.90
2023-01-13T01:11:28.805Z,99.90
2023-01-13T01:14:08.159Z,99.90
2023-01-13T01:16:35.160Z,99.90
2023-01-13T01:19:05.296Z,99.90
2023-01-13T01:21:38.360Z,99.90
2023-01-13T01:24:09.684Z,99.90
2023-01-13T01:26:36.822Z,99.90
2023-01-13T01:29:06.420Z,99.90
2023-01-13T01:31:33.987Z,99.90
2023-01-13T01:34:01.732Z,99.90
2023-01-13T01:36:31.330Z,99.90
2023-01-13T01:39:07.249Z,99.90
2023-01-13T01:41:35.980Z,99.90
2023-01-13T01:44:03.038Z,99.90
2023-01-13T01:46:34.091Z,99.90
2023-01-13T01:49:32.225Z,99.90
2023-01-13T01:52:06.921Z,99.90
2023-01-13T01:54:59.305Z,99.90
2023-01-13T01:57:33.566Z,99.90
2023-01-13T02:00:03.339Z,99.90
2023-01-13T02:02:30.801Z,99.90
2023-01-13T02:07:37.451Z,99.90
2023-01-13T02:10:07.908Z,99.90
2023-01-13T02:12:37.376Z,99.90
2023-01-13T02:15:19.671Z,99.90
2023-01-13T02:18:02.480Z,99.90
2023-01-13T02:20:44.798Z,99.90
2023-01-13T02:23:51.631Z,99.90
2023-01-13T02:26:37.081Z,99.90
2023-01-13T02:29:55.318Z,99.90
2023-01-13T02:32:36.464Z,99.90
2023-01-13T02:37:39.163Z,99.90
2023-01-13T02:40:33.444Z,99.90
2023-01-13T02:43:34.530Z,99.90
2023-01-13T02:46:35.939Z,99.90
2023-01-13T02:49:09.103Z,99.90
2023-01-13T02:51:37.137Z,99.90
2023-01-13T02:54:10.203Z,99.90
2023-01-13T02:56:40.540Z,99.90
2023-01-13T02:59:11.076Z,99.90
2023-01-13T03:01:41.081Z,99.90
2023-01-13T03:04:42.563Z,99.90
2023-01-13T03:07:46.804Z,99.90
2023-01-13T03:10:23.490Z,99.90
2023-01-13T03:13:13.295Z,98.70
2023-01-13T03:16:20.602Z,90.60
2023-01-13T03:18:53.237Z,95.70
2023-01-13T03:21:29.136Z,87.90
2023-01-13T03:24:09.964Z,95.60
2023-01-13T03:26:48.394Z,85.50
2023-01-13T03:29:42.865Z,59.70
2023-01-13T03:32:21.712Z,59.30
2023-01-13T03:35:05.963Z,61.40
2023-01-13T03:37:45.533Z,70.10
2023-01-13T03:40:26.556Z,65.10
2023-01-13T03:43:20.774Z,52.90
2023-01-13T03:45:53.146Z,58.90
2023-01-13T03:48:29.593Z,54.00
2023-01-13T03:51:00.170Z,53.30
2023-01-13T03:56:28.350Z,19.80
2023-01-13T03:58:59.479Z,19.90
2023-01-13T04:01:44.896Z,27.00
2023-01-13T04:04:22.561Z,14.10
2023-01-13T04:06:56.496Z,22.20
2023-01-13T04:09:37.849Z,19.00
2023-01-13T04:12:15.036Z,12.70
2023-01-13T04:14:43.840Z,17.50
2023-01-13T04:17:13.239Z,1.00
2023-01-13T04:19:40.104Z,1.00
2023-01-13T04:22:06.904Z,18.30
2023-01-13T04:24:36.659Z,9.40
2023-01-13T04:27:06.756Z,17.20
2023-01-13T04:29:35.599Z,19.10
2023-01-13T04:32:10.201Z,18.20
2023-01-13T04:34:39.487Z,12.00
2023-01-13T04:37:08.908Z,16.50
2023-01-13T04:39:41.129Z,20.70
2023-01-13T04:42:07.920Z,15.40
2023-01-13T04:44:37.254Z,13.80
2023-01-13T04:47:09.810Z,20.80
2023-01-13T04:49:37.965Z,19.80
2023-01-13T04:52:07.080Z,15.90
2023-01-13T04:54:36.964Z,4.70
2023-01-13T04:57:06.114Z,1.00
2023-01-13T04:59:34.592Z,1.00
2023-01-13T05:02:04.188Z,1.00
2023-01-13T05:04:31.100Z,1.00
2023-01-13T05:07:00.248Z,1.00
2023-01-13T05:09:30.379Z,7.00
2023-01-13T05:12:24.145Z,1.00
2023-01-13T05:15:18.120Z,7.10
2023-01-13T05:17:48.554Z,11.60
2023-01-13T05:20:15.496Z,3.10
2023-01-13T05:23:03.835Z,4.70
2023-01-13T05:25:30.790Z,12.90
2023-01-13T05:30:31.223Z,9.20
2023-01-13T05:33:02.211Z,7.20
2023-01-13T05:35:29.237Z,19.80
2023-01-13T05:37:56.620Z,17.20
2023-01-13T05:40:42.215Z,10.10
2023-01-13T05:43:20.553Z,6.40
2023-01-13T05:45:58.897Z,1.00
2023-01-13T05:48:41.021Z,1.00
2023-01-13T05:51:11.790Z,99.90
2023-01-13T05:53:43.148Z,1.00
2023-01-13T05:56:13.563Z,99.90
2023-01-13T05:58:46.860Z,1.00
2023-01-13T06:01:27.963Z,1.00
2023-01-13T06:03:57.970Z,1.00
2023-01-13T06:06:24.859Z,1.00
2023-01-13T06:08:59.209Z,1.00
2023-01-13T06:11:26.018Z,1.00
2023-01-13T06:14:03.058Z,1.00
2023-01-13T06:16:32.157Z,1.00
2023-01-13T06:19:03.033Z,1.00
2023-01-13T06:21:33.121Z,1.00
2023-01-13T06:24:00.206Z,1.00
2023-01-13T06:26:36.412Z,1.00
2023-01-13T06:29:12.515Z,1.00
2023-01-13T06:31:41.599Z,1.00
2023-01-13T06:34:12.037Z,1.00
2023-01-13T06:39:25.151Z,1.00
2023-01-13T06:42:18.602Z,1.00
2023-01-13T06:44:50.588Z,1.00
2023-01-13T06:47:18.265Z,1.00
2023-01-13T06:49:53.978Z,1.00
2023-01-13T06:52:29.599Z,1.00
2023-01-13T06:55:01.911Z,1.00
2023-01-13T06:57:29.861Z,1.00
2023-01-13T07:00:00.799Z,1.00
2023-01-13T07:02:28.663Z,1.00
2023-01-13T07:05:00.891Z,1.00
2023-01-13T07:07:28.383Z,1.00
2023-01-13T07:10:02.894Z,1.00
2023-01-13T07:12:31.561Z,1.00
2023-01-13T07:15:17.505Z,1.00
2023-01-13T07:17:55.286Z,1.00
2023-01-13T07:20:22.325Z,1.00
2023-01-13T07:22:59.327Z,1.00
2023-01-13T07:25:26.666Z,1.00
2023-01-13T07:28:02.267Z,1.00
2023-01-13T07:30:31.903Z,1.00
2023-01-13T07:32:58.755Z,1.00
2023-01-13T07:35:31.743Z,1.00
2023-01-13T07:38:01.807Z,1.00
2023-01-13T07:40:42.427Z,1.00
2023-01-13T07:43:31.096Z,1.00
2023-01-13T07:46:09.755Z,1.00
2023-01-13T07:48:41.431Z,1.00
2023-01-13T07:51:10.647Z,1.00
2023-01-13T07:53:38.111Z,1.00
2023-01-13T07:56:10.222Z,22.30
2023-01-13T07:58:42.149Z,29.80
2023-01-13T08:01:26.789Z,99.90
2023-01-13T08:03:54.686Z,99.90
2023-01-13T08:06:23.985Z,99.90
2023-01-13T08:08:51.280Z,99.90
2023-01-13T08:11:23.293Z,99.90
2023-01-13T08:13:50.434Z,99.90
2023-01-13T08:16:24.470Z,99.90
2023-01-13T08:18:51.305Z,99.90
2023-01-13T08:21:20.877Z,99.90
2023-01-13T08:23:47.677Z,99.90
2023-01-13T08:26:18.821Z,99.90
2023-01-13T08:28:48.604Z,99.90
2023-01-13T08:31:20.082Z,99.90
2023-01-13T08:33:57.182Z,99.90
2023-01-13T08:36:25.621Z,99.90
2023-01-13T08:39:02.023Z,99.90
2023-01-13T08:41:47.339Z,99.90
2023-01-13T08:44:21.825Z,99.90
2023-01-13T08:46:57.209Z,99.90
2023-01-13T08:49:26.787Z,99.90
2023-01-13T08:51:56.282Z,99.90
2023-01-13T08:54:23.175Z,99.90
2023-01-13T08:56:50.163Z,99.90
2023-01-13T08:59:19.228Z,99.90
2023-01-13T09:01:49.523Z,90.20
2023-01-13T09:04:23.717Z,57.50
2023-01-13T09:06:53.804Z,48.40
2023-01-13T09:09:21.310Z,20.80
2023-01-13T09:12:09.858Z,7.90
2023-01-13T09:14:38.245Z,1.00
2023-01-13T09:17:04.917Z,1.00
2023-01-13T09:19:31.621Z,99.90
2023-01-13T09:21:58.286Z,99.90
2023-01-13T09:24:25.430Z,99.90
2023-01-13T09:26:52.154Z,99.90
2023-01-13T09:29:18.902Z,1.00
2023-01-13T09:31:45.545Z,99.90
2023-01-13T09:34:39.783Z,1.00
2023-01-13T09:37:07.458Z,1.00
2023-01-13T09:39:35.260Z,1.00
2023-01-13T09:42:38.795Z,99.90
2023-01-13T09:45:23.771Z,5.90
2023-01-13T09:47:56.538Z,99.90
2023-01-13T09:50:37.822Z,99.90
2023-01-13T09:53:06.186Z,1.00
2023-01-13T10:57:59.864Z,1.00
2023-01-13T11:00:35.933Z,1.00
2023-01-13T12:13:50.757Z,16.80
2023-01-13T12:16:23.720Z,1.00
2023-01-13T12:19:00.227Z,1.00
2023-01-13T12:21:33.070Z,1.00
2023-01-13T12:24:13.722Z,1.00
2023-01-13T12:26:50.313Z,99.90
2023-01-13T12:29:38.724Z,99.90
2023-01-13T12:32:10.590Z,99.90
2023-01-13T12:35:31.905Z,1.00
2023-01-13T12:38:34.258Z,1.00
2023-01-13T12:41:22.132Z,99.90
2023-01-13T12:44:08.404Z,1.00
2023-01-13T12:47:04.930Z,99.90
2023-01-13T12:49:41.414Z,99.90
2023-01-13T12:52:17.598Z,1.00
2023-01-13T12:54:49.500Z,1.00
2023-01-13T12:57:29.882Z,99.90
2023-01-13T13:00:05.626Z,27.50
2023-01-13T13:02:36.778Z,99.90
2023-01-13T13:05:46.806Z,76.70
2023-01-13T13:08:35.699Z,19.80
2023-01-13T13:11:53.286Z,12.40
2023-01-13T13:14:40.744Z,1.00
2023-01-13T13:19:54.860Z,1.00
2023-01-13T13:22:34.589Z,99.90
2023-01-13T13:25:04.678Z,99.90
2023-01-13T13:27:44.311Z,1.00
2023-01-13T13:30:35.440Z,1.00
2023-01-13T13:33:27.326Z,1.00
2023-01-13T13:36:02.931Z,99.90
2023-01-13T13:39:26.932Z,1.00
2023-01-13T13:42:20.572Z,78.00
2023-01-13T13:45:39.175Z,99.90
2023-01-13T13:48:36.369Z,99.90
2023-01-13T13:51:30.349Z,99.90
2023-01-13T13:54:05.533Z,99.90
2023-01-13T13:56:40.516Z,99.90
2023-01-13T13:59:16.268Z,1.00
2023-01-13T14:20:18.211Z,1.00
2023-01-13T14:22:53.874Z,1.00
2023-01-13T14:28:19.112Z,99.90
2023-01-13T14:30:48.891Z,99.90
2023-01-13T14:33:35.413Z,99.90
2023-01-13T14:36:35.235Z,99.90
2023-01-13T14:39:10.541Z,1.00
2023-01-13T14:41:44.539Z,1.00
2023-01-13T14:44:28.635Z,55.10
2023-01-13T14:47:00.621Z,92.80
2023-01-13T14:50:05.925Z,99.90
2023-01-13T14:55:46.358Z,99.90
2023-01-13T14:58:23.643Z,99.90
2023-01-13T15:01:30.130Z,99.90
2023-01-13T15:04:22.970Z,99.90
2023-01-13T15:06:59.454Z,99.90
2023-01-13T15:09:40.994Z,99.90
2023-01-13T15:12:38.526Z,99.90
2023-01-13T15:15:20.568Z,92.00
2023-01-13T15:17:47.539Z,78.10
2023-01-13T15:20:16.226Z,70.60
2023-01-13T15:22:48.865Z,48.60
2023-01-13T15:25:20.313Z,46.60
2023-01-13T15:33:18.954Z,1.00
2023-01-13T15:35:53.206Z,1.00
2023-01-13T15:38:26.038Z,1.00
2023-01-13T15:40:55.875Z,1.00
2023-01-13T15:43:42.502Z,1.00
2023-01-13T15:46:36.392Z,1.00
2023-01-13T15:49:28.713Z,1.00
2023-01-13T15:55:15.543Z,99.90
2023-01-13T15:57:56.536Z,99.90
2023-01-13T16:00:26.467Z,99.90
2023-01-13T16:02:57.274Z,99.90
2023-01-13T16:05:27.302Z,99.90
2023-01-13T16:07:54.165Z,99.90
2023-01-13T16:10:31.177Z,99.90
2023-01-13T16:12:58.152Z,99.90
2023-01-13T16:15:26.121Z,99.90
2023-01-13T16:18:05.357Z,99.90
2023-01-13T16:20:35.379Z,99.90
2023-01-13T16:23:10.800Z,61.80
2023-01-13T16:25:38.076Z,99.90
2023-01-13T16:28:23.115Z,1.00
2023-01-13T16:30:52.661Z,1.00
2023-01-13T16:33:24.910Z,28.20
2023-01-13T16:36:10.674Z,99.90
2023-01-13T16:38:47.725Z,99.90
2023-01-13T16:46:50.182Z,99.90
2023-01-13T16:52:02.045Z,99.90
2023-01-13T16:54:34.534Z,99.90
2023-01-13T16:57:08.389Z,99.90
2023-01-13T16:59:36.603Z,99.90
2023-01-13T17:04:33.572Z,99.90
2023-01-13T17:07:13.684Z,99.90
2023-01-13T17:09:43.035Z,99.90
2023-01-13T17:12:16.234Z,99.90
2023-01-13T17:14:51.352Z,99.90
2023-01-13T17:17:29.170Z,99.90
2023-01-13T17:20:00.630Z,99.90
2023-01-13T17:22:28.592Z,99.90
2023-01-13T17:25:02.010Z,99.90
2023-01-13T17:27:33.656Z,99.90
2023-01-13T17:30:10.531Z,99.90
2023-01-13T17:32:38.553Z,99.90
2023-01-13T17:35:11.546Z,99.90
2023-01-13T17:37:43.952Z,99.90
2023-01-13T17:40:15.416Z,99.90
2023-01-13T17:42:45.065Z,99.90
2023-01-13T17:45:22.492Z,99.90
2023-01-13T17:47:54.826Z,99.90
2023-01-13T17:50:24.060Z,99.90
2023-01-13T17:53:00.671Z,99.90
2023-01-13T17:55:28.593Z,99.90
2023-01-13T17:57:56.240Z,99.90
2023-01-13T18:00:26.172Z,99.90
2023-01-13T18:03:02.781Z,99.90
2023-01-13T18:05:29.724Z,99.90
2023-01-13T18:08:05.599Z,99.90
2023-01-13T18:10:33.591Z,99.90
2023-01-13T18:13:06.072Z,99.90
2023-01-13T18:15:33.959Z,99.90
2023-01-13T18:18:08.126Z,99.90
2023-01-13T18:20:54.236Z,99.90
2023-01-13T18:23:42.054Z,99.90
2023-01-13T18:26:45.939Z,99.90
2023-01-13T18:29:12.891Z,99.90
2023-01-13T18:31:43.069Z,99.90
2023-01-13T18:34:12.993Z,99.90
2023-01-13T18:36:45.591Z,99.90
2023-01-13T18:39:14.956Z,99.90
2023-01-13T18:42:01.300Z,98.70
2023-01-13T18:44:38.202Z,95.00
2023-01-13T18:47:16.592Z,94.60
2023-01-13T18:49:43.507Z,95.20
2023-01-13T18:52:17.942Z,90.60
2023-01-13T19:00:15.606Z,80.90
2023-01-13T19:02:46.600Z,94.90
2023-01-13T19:05:14.208Z,81.10
2023-01-13T19:07:44.068Z,87.10
2023-01-13T19:10:14.814Z,79.90
2023-01-13T19:12:45.209Z,76.30
2023-01-13T19:15:15.224Z,67.70
2023-01-13T19:17:42.069Z,73.50
2023-01-13T19:20:11.846Z,82.70
2023-01-13T19:22:42.738Z,83.80
2023-01-13T19:25:11.011Z,93.90
2023-01-13T19:27:41.511Z,91.70
2023-01-13T19:30:09.506Z,92.50
2023-01-13T19:32:36.381Z,92.30
2023-01-13T19:35:03.993Z,94.40
2023-01-13T19:37:38.202Z,98.20
2023-01-13T19:40:10.145Z,97.60
2023-01-13T19:42:59.194Z,97.60
2023-01-13T19:45:36.295Z,99.60
2023-01-13T19:48:19.652Z,99.90
2023-01-13T19:50:52.210Z,99.90
2023-01-13T19:53:21.750Z,99.90
2023-01-13T19:55:59.869Z,99.90
2023-01-13T19:58:30.054Z,99.90
2023-01-13T20:01:00.592Z,99.90
2023-01-13T20:03:36.268Z,99.90
2023-01-13T20:06:10.207Z,99.90
2023-01-13T20:08:37.377Z,99.90
2023-01-13T20:11:28.954Z,99.90
2023-01-13T20:16:42.306Z,94.70
2023-01-13T20:19:11.306Z,96.60
2023-01-13T20:21:42.672Z,93.70
2023-01-13T20:24:19.733Z,93.70
2023-01-13T20:26:51.917Z,91.70
2023-01-13T20:29:18.709Z,91.50
2023-01-13T20:31:47.860Z,91.90
2023-01-13T20:34:15.350Z,92.80
2023-01-13T20:36:43.635Z,92.20
2023-01-13T20:39:19.062Z,90.50
2023-01-13T20:42:05.668Z,95.10
2023-01-13T20:47:05.380Z,96.60
2023-01-13T20:49:32.990Z,95.20
2023-01-13T20:51:59.841Z,93.90
2023-01-13T20:54:29.000Z,96.40
2023-01-13T20:57:00.248Z,93.00
2023-01-13T20:59:27.420Z,91.20
2023-01-13T21:01:54.225Z,90.80
2023-01-13T21:04:21.352Z,85.70
2023-01-13T21:06:48.314Z,81.10
2023-01-13T21:09:15.283Z,84.10
2023-01-13T21:12:00.376Z,86.00
2023-01-13T21:17:00.500Z,81.00
2023-01-13T21:19:29.989Z,80.00
2023-01-13T21:21:57.303Z,84.50
2023-01-13T21:24:28.231Z,72.30
2023-01-13T21:27:05.041Z,67.80
2023-01-13T21:29:31.980Z,72.10
2023-01-13T21:31:59.609Z,74.10
2023-01-13T21:34:28.327Z,72.50
2023-01-13T21:36:57.956Z,73.00
2023-01-13T21:39:25.226Z,67.40
2023-01-13T21:42:10.551Z,61.20
2023-01-13T21:44:48.070Z,71.60
2023-01-13T21:47:37.698Z,72.60
2023-01-13T21:50:07.752Z,64.40
2023-01-13T21:52:34.679Z,62.60
2023-01-13T21:55:20.104Z,60.60
2023-01-13T21:57:52.110Z,57.70
2023-01-13T22:00:24.938Z,65.90
2023-01-13T22:02:52.809Z,72.30
2023-01-13T22:05:21.452Z,54.60
2023-01-13T22:07:48.357Z,68.60
2023-01-13T22:10:25.805Z,64.10
2023-01-13T22:12:55.553Z,63.40
2023-01-13T22:15:30.893Z,66.20
2023-01-13T22:17:58.023Z,63.40
2023-01-13T22:20:30.733Z,58.00
2023-01-13T22:23:06.617Z,62.90
2023-01-13T22:25:36.741Z,63.00
2023-01-13T22:28:09.547Z,58.70
2023-01-13T22:30:42.191Z,57.80
2023-01-13T22:33:11.212Z,67.20
2023-01-13T22:35:42.093Z,68.90
2023-01-13T22:38:12.163Z,65.70
2023-01-13T22:40:45.002Z,79.20
2023-01-13T22:43:14.649Z,78.10
2023-01-13T22:45:41.590Z,72.70
2023-01-13T22:48:10.634Z,76.40
2023-01-13T22:50:45.769Z,79.30
2023-01-13T22:53:18.912Z,88.70
2023-01-13T22:56:00.378Z,87.30
2023-01-13T22:58:33.739Z,90.70
2023-01-13T23:01:15.985Z,89.00
2023-01-13T23:03:46.622Z,90.00
2023-01-13T23:06:21.050Z,92.20
2023-01-13T23:08:49.436Z,93.40
2023-01-13T23:11:22.062Z,95.00
2023-01-13T23:13:59.735Z,91.60
2023-01-13T23:16:27.937Z,92.10
2023-01-13T23:18:56.597Z,95.40
2023-01-13T23:21:28.048Z,99.90
2023-01-13T23:24:02.014Z,98.70
2023-01-13T23:26:35.641Z,98.80
2023-01-13T23:29:08.918Z,98.70
2023-01-13T23:31:53.528Z,99.90
2023-01-13T23:34:25.631Z,99.80
2023-01-13T23:36:56.810Z,99.90
2023-01-13T23:39:25.927Z,97.80
2023-01-13T23:41:55.166Z,98.10
2023-01-13T23:44:27.930Z,99.90
2023-01-13T23:46:55.009Z,99.90
2023-01-13T23:49:25.812Z,99.90
2023-01-13T23:51:52.816Z,99.00
2023-01-13T23:54:27.301Z,99.90
2023-01-13T23:56:57.280Z,99.90
2023-01-13T23:59:35.543Z,99.90
